Waverly, Florida
Current Conditions -  °F | °C
As of 6:15 AM on Friday 28 Nov 2014 (Local Time) from KBOW Reporting Station
Clear Clear  
Wind Chill: 40°   Ceiling: Unl
Heat Index: 45°   Visibility: 10mi
Dew Point: 34°   Wind: 8mph
Humidity: 66%   Direction: 350°N
Pressure: 30.3"   Gusts: NA
Location:  27.98°N, 81.61°W
Report Text: KBOW 281115Z AUTO 35007KT 10SM CLR 07/01 A3030 RMK AO2
Loading
Personal Weather Stations






























Interactive Weather Map New forecast layout! Learn more

10-Day Weather Forecast

Advertisements
Track Severe Weather on mobile